Terminal Aerodrome Forecast
Issued by NWS

Home | Current Version | Previous Version | Graphics & Text | Print | Product List | Glossary On
Versions: 1 2 3 4 5 6 7 8 9 10 11 12 13 14 15
197
FTUS42 KMHX 161302 AAA
TAFOAJ
TAF AMD
KOAJ 161302Z 1613/1712 24005KT P6SM FEW004
      TEMPO 1613/1614 5SM BR BKN009
     FM161400 32005KT P6SM SCT020 BKN090
     FM161800 36009G18KT 6SM -SHRA BKN015
     FM162300 01008KT P6SM BKN025
     FM170200 01007KT P6SM SCT090
      AMD LTD TO CLD VIS AND WIND=

USA.gov is the U.S. government's official web portal to all federal, state and local government web resources and services.